createdAt,value
2023-01-25T00:00:06.871Z,17.50
2023-01-25T00:02:33.870Z,17.90
2023-01-25T00:05:00.786Z,17.50
2023-01-25T00:07:27.713Z,21.80
2023-01-25T00:09:54.696Z,24.20
2023-01-25T00:12:21.555Z,27.60
2023-01-25T00:14:48.482Z,27.80
2023-01-25T00:17:15.449Z,28.90
2023-01-25T00:19:42.424Z,31.30
2023-01-25T00:22:09.337Z,32.60
2023-01-25T00:24:36.345Z,37.40
2023-01-25T00:27:03.936Z,37.50
2023-01-25T00:29:30.838Z,39.90
2023-01-25T00:31:57.902Z,38.50
2023-01-25T00:34:24.921Z,43.80
2023-01-25T00:36:57.090Z,41.00
2023-01-25T00:39:26.335Z,44.30
2023-01-25T00:41:53.458Z,40.70
2023-01-25T00:44:20.446Z,40.00
2023-01-25T00:46:47.750Z,42.10
2023-01-25T00:49:23.355Z,39.80
2023-01-25T00:51:51.244Z,39.40
2023-01-25T00:54:18.624Z,42.90
2023-01-25T00:56:46.113Z,44.30
2023-01-25T00:59:14.008Z,44.00
2023-01-25T01:01:42.115Z,42.70
2023-01-25T01:04:09.165Z,44.80
2023-01-25T01:06:40.002Z,41.40
2023-01-25T01:09:11.661Z,38.50
2023-01-25T01:11:38.633Z,35.30
2023-01-25T01:14:05.541Z,32.00
2023-01-25T01:16:32.647Z,29.80
2023-01-25T01:18:59.660Z,32.20
2023-01-25T01:21:26.598Z,32.60
2023-01-25T01:23:54.990Z,34.40
2023-01-25T01:26:22.240Z,31.60
2023-01-25T01:28:49.292Z,37.10
2023-01-25T01:31:23.404Z,38.40
2023-01-25T01:33:55.989Z,42.90
2023-01-25T01:36:25.994Z,41.20
2023-01-25T01:38:53.019Z,42.00
2023-01-25T01:41:20.405Z,43.60
2023-01-25T01:43:47.955Z,40.50
2023-01-25T01:46:38.556Z,42.20
2023-01-25T01:49:13.844Z,43.80
2023-01-25T01:51:49.658Z,43.80
2023-01-25T01:54:19.286Z,49.70
2023-01-25T01:56:59.244Z,49.30
2023-01-25T01:59:31.608Z,38.70
2023-01-25T02:01:58.525Z,40.20
2023-01-25T02:04:27.888Z,45.90
2023-01-25T02:07:08.044Z,48.70
2023-01-25T02:09:36.534Z,51.90
2023-01-25T02:12:06.227Z,50.60
2023-01-25T02:14:34.537Z,49.50
2023-01-25T02:17:01.569Z,46.10
2023-01-25T02:19:57.367Z,48.10
2023-01-25T02:22:31.480Z,48.20
2023-01-25T02:25:13.343Z,47.30
2023-01-25T02:27:45.890Z,44.00
2023-01-25T02:30:13.209Z,40.60
2023-01-25T02:32:40.110Z,35.00
2023-01-25T02:35:08.052Z,37.10
2023-01-25T02:37:35.425Z,37.00
2023-01-25T02:40:02.307Z,33.20
2023-01-25T02:42:32.043Z,32.30
2023-01-25T02:44:59.068Z,29.90
2023-01-25T02:47:25.915Z,29.60
2023-01-25T02:49:52.761Z,26.10
2023-01-25T02:52:19.652Z,22.20
2023-01-25T02:54:46.530Z,18.80
2023-01-25T02:57:13.545Z,18.00
2023-01-25T02:59:40.451Z,16.30
2023-01-25T03:02:07.997Z,21.90
2023-01-25T03:04:34.853Z,17.60
2023-01-25T03:07:01.788Z,18.80
2023-01-25T03:09:28.753Z,20.60
2023-01-25T03:11:55.589Z,23.50
2023-01-25T03:14:22.480Z,24.60
2023-01-25T03:16:49.587Z,24.60
2023-01-25T03:19:16.697Z,27.00
2023-01-25T03:21:43.661Z,34.40
2023-01-25T03:24:11.550Z,30.20
2023-01-25T03:26:58.481Z,32.60
2023-01-25T03:29:25.484Z,32.30
2023-01-25T03:31:52.434Z,34.80
2023-01-25T03:34:19.428Z,28.20
2023-01-25T03:36:46.384Z,29.00
2023-01-25T03:39:13.310Z,23.70
2023-01-25T03:41:40.250Z,21.60
2023-01-25T03:44:07.112Z,19.30
2023-01-25T03:46:33.991Z,24.80
2023-01-25T03:49:00.839Z,24.40
2023-01-25T03:51:27.713Z,24.00
2023-01-25T03:53:54.602Z,22.00
2023-01-25T03:56:21.504Z,16.90
2023-01-25T03:58:48.427Z,19.50
2023-01-25T04:01:15.401Z,24.60
2023-01-25T04:03:42.351Z,27.40
2023-01-25T04:06:09.510Z,27.80
2023-01-25T04:08:37.673Z,29.90
2023-01-25T04:11:09.580Z,34.00
2023-01-25T04:13:37.974Z,33.40
2023-01-25T04:16:06.725Z,31.90
2023-01-25T04:18:33.855Z,29.60
2023-01-25T04:21:00.772Z,39.40
2023-01-25T04:23:27.638Z,33.70
2023-01-25T04:26:01.747Z,37.50
2023-01-25T04:28:28.856Z,40.70
2023-01-25T04:30:58.072Z,35.40
2023-01-25T04:33:25.259Z,39.80
2023-01-25T04:35:52.834Z,38.80
2023-01-25T04:38:20.084Z,38.40
2023-01-25T04:40:47.178Z,32.40
2023-01-25T04:43:15.801Z,30.90
2023-01-25T04:45:42.770Z,26.50
2023-01-25T04:48:11.503Z,26.70
2023-01-25T04:50:39.550Z,27.20
2023-01-25T04:53:07.707Z,28.40
2023-01-25T04:55:35.051Z,31.20
2023-01-25T04:58:02.883Z,30.80
2023-01-25T05:00:31.151Z,27.80
2023-01-25T05:02:58.217Z,29.20
2023-01-25T05:05:25.126Z,28.60
2023-01-25T05:07:52.021Z,26.30
2023-01-25T05:10:19.050Z,29.70
2023-01-25T05:12:45.957Z,37.40
2023-01-25T05:15:13.058Z,40.30
2023-01-25T05:17:40.035Z,40.30
2023-01-25T05:20:07.295Z,43.40
2023-01-25T05:22:34.165Z,51.60
2023-01-25T05:25:02.965Z,51.50
2023-01-25T05:27:29.827Z,40.50
2023-01-25T05:29:57.796Z,38.20
2023-01-25T05:32:25.140Z,40.50
2023-01-25T05:34:52.074Z,44.10
2023-01-25T05:37:20.647Z,42.60
2023-01-25T05:39:47.773Z,47.20
2023-01-25T05:42:17.053Z,44.70
2023-01-25T05:44:47.333Z,44.80
2023-01-25T05:47:16.737Z,41.00
2023-01-25T05:49:43.952Z,43.70
2023-01-25T05:52:19.690Z,45.10
2023-01-25T05:54:46.534Z,46.30
2023-01-25T05:57:14.505Z,44.30
2023-01-25T05:59:41.488Z,40.70
2023-01-25T06:02:08.534Z,41.90
2023-01-25T06:04:35.419Z,44.90
2023-01-25T06:07:02.292Z,42.40
2023-01-25T06:09:29.143Z,41.80
2023-01-25T06:11:56.004Z,40.80
2023-01-25T06:14:23.923Z,45.30
2023-01-25T06:16:50.825Z,42.40
2023-01-25T06:19:17.805Z,46.60
2023-01-25T06:21:44.650Z,41.60
2023-01-25T06:24:11.693Z,37.90
2023-01-25T06:26:38.951Z,43.20
2023-01-25T06:29:06.919Z,41.80
2023-01-25T06:31:35.036Z,36.20
2023-01-25T06:34:04.615Z,40.50
2023-01-25T06:36:31.576Z,39.80
2023-01-25T06:38:58.528Z,38.90
2023-01-25T06:41:25.552Z,42.00
2023-01-25T06:43:53.168Z,41.00
2023-01-25T06:46:20.499Z,40.10
2023-01-25T06:48:47.973Z,46.10
2023-01-25T06:51:15.730Z,49.30
2023-01-25T06:53:44.686Z,45.70
2023-01-25T06:56:17.873Z,50.30
2023-01-25T06:58:45.362Z,52.70
2023-01-25T07:01:21.343Z,53.90
2023-01-25T07:03:49.988Z,56.10
2023-01-25T07:06:17.059Z,52.70
2023-01-25T07:08:44.355Z,51.10
2023-01-25T07:11:14.023Z,49.60
2023-01-25T07:13:48.825Z,51.00
2023-01-25T07:16:20.504Z,52.90
2023-01-25T07:18:47.990Z,55.60
2023-01-25T07:21:20.524Z,62.40
2023-01-25T07:23:48.508Z,62.70
2023-01-25T07:26:21.640Z,65.80
2023-01-25T07:28:49.067Z,60.10
2023-01-25T07:31:17.757Z,72.50
2023-01-25T07:33:48.740Z,72.60
2023-01-25T07:36:16.071Z,73.90
2023-01-25T07:38:43.036Z,73.10
2023-01-25T07:41:09.964Z,71.00
2023-01-25T07:43:37.093Z,66.50
2023-01-25T07:46:06.650Z,76.00
2023-01-25T07:48:33.728Z,77.60
2023-01-25T07:51:20.750Z,74.10
2023-01-25T07:53:47.993Z,61.90
2023-01-25T07:56:14.978Z,68.90
2023-01-25T07:58:41.890Z,76.80
2023-01-25T08:01:09.680Z,78.00
2023-01-25T08:03:37.150Z,74.40
2023-01-25T08:06:05.379Z,69.90
2023-01-25T08:08:34.733Z,68.40
2023-01-25T08:11:08.699Z,71.80
2023-01-25T08:13:35.719Z,73.80
2023-01-25T08:16:02.618Z,76.00
2023-01-25T08:18:29.511Z,76.80
2023-01-25T08:20:59.425Z,66.30
2023-01-25T08:23:27.167Z,68.00
2023-01-25T08:25:54.093Z,66.60
2023-01-25T08:28:20.975Z,71.10
2023-01-25T08:30:56.842Z,73.20
2023-01-25T08:33:24.504Z,66.30
2023-01-25T08:35:57.629Z,60.30
2023-01-25T08:38:24.593Z,55.10
2023-01-25T08:40:51.913Z,54.30
2023-01-25T08:43:18.804Z,52.20
2023-01-25T08:45:45.995Z,49.10
2023-01-25T08:48:15.687Z,44.50
2023-01-25T08:50:47.429Z,37.60
2023-01-25T08:53:14.559Z,40.90
2023-01-25T08:55:43.108Z,34.70
2023-01-25T08:58:14.098Z,30.30
2023-01-25T09:00:41.752Z,29.60
2023-01-25T09:03:09.079Z,23.00
2023-01-25T09:05:37.014Z,16.40
2023-01-25T09:08:06.870Z,19.50
2023-01-25T09:10:34.896Z,20.50
2023-01-25T09:13:02.003Z,15.50
2023-01-25T09:15:29.137Z,19.20
2023-01-25T09:17:56.854Z,14.90
2023-01-25T09:20:24.591Z,19.80
2023-01-25T09:22:51.472Z,18.00
2023-01-25T09:25:18.402Z,18.60
2023-01-25T09:27:45.285Z,10.30
2023-01-25T09:30:18.231Z,4.40
2023-01-25T09:32:48.640Z,1.00
2023-01-25T09:35:15.569Z,1.00
2023-01-25T09:37:42.431Z,1.00
2023-01-25T09:40:22.738Z,1.00
2023-01-25T09:43:07.298Z,1.00
2023-01-25T09:45:36.325Z,1.00
2023-01-25T09:48:42.168Z,1.00
2023-01-25T09:51:27.461Z,1.00
2023-01-25T09:53:56.580Z,1.00
2023-01-25T09:56:32.985Z,1.00
2023-01-25T09:59:09.791Z,1.00
2023-01-25T10:01:54.158Z,1.00
2023-01-25T10:04:30.641Z,1.00
2023-01-25T10:07:03.907Z,1.00
2023-01-25T10:09:37.307Z,1.00
2023-01-25T10:12:18.906Z,1.00
2023-01-25T10:14:46.346Z,1.00
2023-01-25T10:17:33.480Z,1.00
2023-01-25T10:20:49.489Z,1.00
2023-01-25T10:23:46.737Z,1.00
2023-01-25T10:26:18.868Z,1.00
2023-01-25T10:29:10.416Z,1.00
2023-01-25T10:31:37.227Z,1.00
2023-01-25T10:34:35.482Z,1.00
2023-01-25T10:37:15.325Z,1.00
2023-01-25T10:40:06.634Z,1.00
2023-01-25T10:42:53.644Z,1.00
2023-01-25T10:45:20.659Z,1.00
2023-01-25T10:47:57.326Z,1.00
2023-01-25T10:50:42.401Z,1.00
2023-01-25T10:53:44.973Z,1.00
2023-01-25T10:56:25.995Z,1.00
2023-01-25T10:59:05.488Z,1.00
2023-01-25T11:01:35.859Z,1.00
2023-01-25T11:04:03.634Z,1.00
2023-01-25T11:06:34.971Z,1.00
2023-01-25T11:09:22.841Z,1.00
2023-01-25T11:12:17.598Z,1.00
2023-01-25T11:14:45.347Z,1.00
2023-01-25T11:17:30.470Z,1.00
2023-01-25T11:20:19.469Z,1.00
2023-01-25T11:22:54.157Z,1.00
2023-01-25T11:25:35.459Z,1.00
2023-01-25T11:28:11.547Z,1.00
2023-01-25T11:30:39.010Z,1.00
2023-01-25T11:33:14.032Z,1.00
2023-01-25T11:36:07.211Z,1.00
2023-01-25T11:38:34.177Z,1.00
2023-01-25T11:41:25.233Z,1.00
2023-01-25T11:44:13.733Z,1.00
2023-01-25T11:46:57.108Z,1.00
2023-01-25T11:49:34.764Z,1.00
2023-01-25T11:52:22.082Z,1.00
2023-01-25T11:54:52.625Z,1.00
2023-01-25T11:57:34.854Z,1.00
2023-01-25T12:00:07.876Z,1.00
2023-01-25T12:03:02.073Z,1.00
2023-01-25T12:05:44.813Z,1.00
2023-01-25T12:08:23.917Z,1.00
2023-01-25T12:11:18.580Z,1.00
2023-01-25T12:14:05.080Z,1.00
2023-01-25T12:17:22.239Z,1.00
2023-01-25T12:19:58.654Z,1.00
2023-01-25T12:22:42.360Z,1.00
2023-01-25T12:25:41.031Z,1.00
2023-01-25T12:28:20.668Z,1.00
2023-01-25T12:31:14.736Z,1.00
2023-01-25T12:34:09.041Z,1.00
2023-01-25T12:36:43.369Z,1.00
2023-01-25T12:39:24.876Z,1.00
2023-01-25T12:42:04.295Z,1.00
2023-01-25T12:44:59.225Z,1.00
2023-01-25T12:47:41.999Z,1.00
2023-01-25T12:50:17.680Z,1.00
2023-01-25T12:52:55.996Z,1.00
2023-01-25T12:55:22.941Z,1.00
2023-01-25T12:58:04.669Z,1.00
2023-01-25T13:00:53.222Z,1.00
2023-01-25T13:03:38.069Z,1.00
2023-01-25T13:06:04.892Z,1.00
2023-01-25T13:08:56.242Z,1.00
2023-01-25T13:11:31.703Z,1.00
2023-01-25T13:14:23.739Z,1.00
2023-01-25T13:17:01.427Z,1.00
2023-01-25T13:19:31.797Z,1.00
2023-01-25T13:22:00.103Z,1.00
2023-01-25T13:24:34.911Z,1.00
2023-01-25T13:27:23.396Z,1.00
2023-01-25T13:29:56.824Z,1.00
2023-01-25T13:32:29.449Z,1.00
2023-01-25T13:34:58.946Z,1.00
2023-01-25T13:37:31.639Z,1.00
2023-01-25T13:40:06.044Z,1.00
2023-01-25T13:42:35.275Z,1.00
2023-01-25T13:45:21.319Z,1.00
2023-01-25T13:48:06.192Z,1.00
2023-01-25T13:51:04.575Z,1.00
2023-01-25T13:53:35.372Z,1.00
2023-01-25T13:56:03.609Z,1.00
2023-01-25T13:58:36.576Z,1.00
2023-01-25T14:01:15.556Z,1.00
2023-01-25T14:03:51.767Z,1.00
2023-01-25T14:06:28.038Z,1.00
2023-01-25T14:08:58.249Z,1.00
2023-01-25T14:11:30.966Z,1.00
2023-01-25T14:14:16.604Z,1.00
2023-01-25T14:16:44.258Z,1.00
2023-01-25T14:19:29.978Z,1.00
2023-01-25T14:22:15.631Z,1.00
2023-01-25T14:24:42.477Z,1.00
2023-01-25T14:27:14.512Z,1.00
2023-01-25T14:29:41.970Z,1.00
2023-01-25T14:32:18.169Z,1.00
2023-01-25T14:34:45.075Z,1.00
2023-01-25T14:37:20.965Z,1.00
2023-01-25T14:39:49.896Z,1.00
2023-01-25T14:42:18.114Z,1.00
2023-01-25T14:44:45.415Z,1.00
2023-01-25T14:47:24.079Z,1.00
2023-01-25T14:49:50.983Z,1.00
2023-01-25T14:52:20.002Z,1.00
2023-01-25T14:55:00.187Z,1.00
2023-01-25T14:57:41.843Z,1.00
2023-01-25T15:00:17.764Z,1.00
2023-01-25T15:02:55.185Z,1.00
2023-01-25T15:05:27.783Z,1.00
2023-01-25T15:08:07.773Z,1.00
2023-01-25T15:10:37.267Z,1.00
2023-01-25T15:13:13.610Z,1.00
2023-01-25T15:15:58.034Z,1.00
2023-01-25T15:18:43.909Z,1.00
2023-01-25T15:21:24.108Z,1.00
2023-01-25T15:23:53.618Z,1.00
2023-01-25T15:26:22.665Z,1.00
2023-01-25T15:28:51.332Z,1.00
2023-01-25T15:31:22.840Z,1.00
2023-01-25T15:33:49.805Z,1.00
2023-01-25T15:36:17.851Z,1.00
2023-01-25T15:38:45.326Z,1.00
2023-01-25T15:41:13.806Z,1.00
2023-01-25T15:43:40.936Z,1.00
2023-01-25T15:46:19.363Z,1.00
2023-01-25T15:48:48.331Z,1.00
2023-01-25T15:51:15.877Z,1.00
2023-01-25T15:53:42.821Z,1.00
2023-01-25T15:56:21.862Z,1.00
2023-01-25T15:58:53.947Z,1.00
2023-01-25T16:01:22.389Z,1.00
2023-01-25T16:03:49.348Z,1.00
2023-01-25T16:06:25.456Z,1.00
2023-01-25T16:08:52.388Z,1.00
2023-01-25T16:11:19.239Z,1.00
2023-01-25T16:13:46.093Z,1.00
2023-01-25T16:16:19.316Z,1.00
2023-01-25T16:18:46.731Z,1.00
2023-01-25T16:21:14.036Z,1.00
2023-01-25T16:23:41.279Z,1.00
2023-01-25T16:26:16.417Z,1.00
2023-01-25T16:28:43.318Z,1.00
2023-01-25T16:31:30.254Z,1.00
2023-01-25T16:33:59.199Z,1.00
2023-01-25T16:36:26.202Z,1.00
2023-01-25T16:38:53.248Z,1.00
2023-01-25T16:41:20.263Z,1.00
2023-01-25T16:43:48.645Z,1.00
2023-01-25T16:46:23.450Z,1.00
2023-01-25T16:48:52.495Z,1.00
2023-01-25T16:51:22.558Z,1.00
2023-01-25T16:53:51.580Z,1.00
2023-01-25T16:56:23.709Z,1.00
2023-01-25T16:58:52.040Z,1.00
2023-01-25T17:01:20.395Z,1.00
2023-01-25T17:03:47.766Z,1.00
2023-01-25T17:06:20.181Z,1.00
2023-01-25T17:08:48.369Z,1.00
2023-01-25T17:11:18.845Z,1.00
2023-01-25T17:13:53.630Z,1.00
2023-01-25T17:16:21.668Z,1.00
2023-01-25T17:18:53.492Z,1.00
2023-01-25T17:21:21.224Z,1.00
2023-01-25T17:23:48.435Z,1.00
2023-01-25T17:26:17.874Z,1.00
2023-01-25T17:28:44.824Z,1.00
2023-01-25T17:31:26.281Z,1.00
2023-01-25T17:33:54.015Z,1.00
2023-01-25T17:36:21.205Z,1.00
2023-01-25T17:38:48.257Z,1.00
2023-01-25T17:41:17.188Z,1.00
2023-01-25T17:43:44.188Z,1.00
2023-01-25T17:46:22.066Z,1.00
2023-01-25T17:48:49.119Z,1.00
2023-01-25T17:51:16.035Z,1.00
2023-01-25T17:53:42.926Z,1.00
2023-01-25T17:56:12.449Z,1.00
2023-01-25T17:58:40.503Z,1.00
2023-01-25T18:01:15.685Z,1.00
2023-01-25T18:03:43.944Z,1.00
2023-01-25T18:06:18.504Z,1.00
2023-01-25T18:08:49.308Z,1.00
2023-01-25T18:11:19.461Z,1.00
2023-01-25T18:13:48.430Z,1.00
2023-01-25T18:16:16.235Z,1.00
2023-01-25T18:18:44.700Z,1.00
2023-01-25T18:21:22.046Z,1.00
2023-01-25T18:23:49.092Z,1.00
2023-01-25T18:26:37.010Z,1.00
2023-01-25T18:29:09.984Z,1.00
2023-01-25T18:31:37.342Z,1.00
2023-01-25T18:34:04.526Z,1.00
2023-01-25T18:36:31.390Z,1.00
2023-01-25T18:39:00.024Z,1.00
2023-01-25T18:41:27.161Z,1.00
2023-01-25T18:43:56.813Z,1.00
2023-01-25T18:46:23.875Z,1.00
2023-01-25T18:48:51.254Z,1.00
2023-01-25T18:51:18.154Z,1.00
2023-01-25T18:53:47.656Z,1.00
2023-01-25T18:56:20.716Z,1.00
2023-01-25T18:58:48.686Z,1.00
2023-01-25T19:01:18.439Z,1.00
2023-01-25T19:03:46.944Z,1.00
2023-01-25T19:06:15.162Z,1.00
2023-01-25T19:08:44.361Z,1.00
2023-01-25T19:11:14.139Z,1.00
2023-01-25T19:13:42.416Z,1.00
2023-01-25T19:16:17.810Z,1.00
2023-01-25T19:18:47.543Z,1.00
2023-01-25T19:21:19.737Z,1.00
2023-01-25T19:23:47.584Z,1.00
2023-01-25T19:26:17.378Z,1.00
2023-01-25T19:28:44.673Z,1.00
2023-01-25T19:31:18.294Z,1.00
2023-01-25T19:33:46.158Z,1.00
2023-01-25T19:36:16.728Z,1.00
2023-01-25T19:38:44.899Z,1.00
2023-01-25T19:41:14.506Z,1.00
2023-01-25T19:43:42.032Z,1.00
2023-01-25T19:46:14.277Z,1.00
2023-01-25T19:48:42.238Z,1.00
2023-01-25T19:51:14.993Z,1.00
2023-01-25T19:53:47.530Z,1.00
2023-01-25T19:56:16.411Z,1.00
2023-01-25T19:58:48.558Z,1.00
2023-01-25T20:01:29.174Z,1.00
2023-01-25T20:04:01.019Z,1.00
2023-01-25T20:06:28.422Z,1.00
2023-01-25T20:08:55.365Z,1.00
2023-01-25T20:11:27.589Z,1.00
2023-01-25T20:13:58.801Z,1.00
2023-01-25T20:16:27.483Z,1.00
2023-01-25T20:18:56.308Z,1.00
2023-01-25T20:21:24.492Z,1.00
2023-01-25T20:23:56.151Z,1.00
2023-01-25T20:26:25.768Z,1.00
2023-01-25T20:28:55.419Z,1.00
2023-01-25T20:31:23.831Z,1.00
2023-01-25T20:33:53.079Z,1.00
2023-01-25T20:36:20.328Z,1.00
2023-01-25T20:38:47.334Z,1.00
2023-01-25T20:41:15.769Z,1.00
2023-01-25T20:43:50.654Z,1.00
2023-01-25T20:46:18.829Z,1.00
2023-01-25T20:48:46.343Z,1.00
2023-01-25T20:51:16.986Z,1.00
2023-01-25T20:53:45.740Z,1.00
2023-01-25T20:56:14.364Z,1.00
2023-01-25T20:58:41.964Z,1.00
2023-01-25T21:01:20.320Z,1.00
2023-01-25T21:03:48.216Z,1.00
2023-01-25T21:06:16.203Z,1.00
2023-01-25T21:08:43.560Z,1.00
2023-01-25T21:11:11.768Z,1.00
2023-01-25T21:13:38.923Z,1.00
2023-01-25T21:16:07.703Z,1.00
2023-01-25T21:18:43.008Z,1.00
2023-01-25T21:21:21.180Z,1.00
2023-01-25T21:23:50.060Z,1.00
2023-01-25T21:26:26.579Z,1.00
2023-01-25T21:28:56.874Z,1.00
2023-01-25T21:31:35.226Z,1.00
2023-01-25T21:34:03.236Z,1.00
2023-01-25T21:36:30.376Z,1.00
2023-01-25T21:38:58.196Z,1.00
2023-01-25T21:41:30.827Z,1.00
2023-01-25T21:44:18.060Z,1.00
2023-01-25T21:47:04.157Z,1.00
2023-01-25T21:49:51.286Z,1.00
2023-01-25T21:52:18.136Z,1.00
2023-01-25T21:54:44.977Z,1.00
2023-01-25T21:57:11.877Z,1.00
2023-01-25T21:59:40.881Z,1.00
2023-01-25T22:02:13.218Z,1.00
2023-01-25T22:04:40.363Z,1.00
2023-01-25T22:07:08.824Z,1.00
2023-01-25T22:09:36.294Z,1.00
2023-01-25T22:12:03.231Z,1.00
2023-01-25T22:14:30.192Z,1.00
2023-01-25T22:16:57.165Z,1.00
2023-01-25T22:19:24.383Z,1.00
2023-01-25T22:21:51.219Z,1.00
2023-01-25T22:24:18.249Z,1.00
2023-01-25T22:26:53.886Z,1.00
2023-01-25T22:29:20.772Z,1.00
2023-01-25T22:31:47.676Z,1.00
2023-01-25T22:34:14.560Z,1.00
2023-01-25T22:36:41.456Z,1.00
2023-01-25T22:39:09.778Z,1.00
2023-01-25T22:41:37.736Z,1.00
2023-01-25T22:44:05.075Z,1.00
2023-01-25T22:46:32.397Z,1.00
2023-01-25T22:48:59.612Z,1.00
2023-01-25T22:51:28.946Z,1.00
2023-01-25T22:53:57.519Z,1.00
2023-01-25T22:56:27.279Z,1.00
2023-01-25T22:58:54.234Z,1.00
2023-01-25T23:01:22.094Z,1.00
2023-01-25T23:03:49.999Z,1.00
2023-01-25T23:06:19.557Z,1.00
2023-01-25T23:08:47.166Z,1.00
2023-01-25T23:11:15.451Z,1.00
2023-01-25T23:14:03.413Z,1.00
2023-01-25T23:16:30.831Z,1.00
2023-01-25T23:18:57.907Z,1.00
2023-01-25T23:21:30.017Z,1.00
2023-01-25T23:24:00.995Z,1.00
2023-01-25T23:26:29.826Z,1.00
2023-01-25T23:28:57.998Z,1.00
2023-01-25T23:31:26.289Z,1.00
2023-01-25T23:33:59.160Z,1.00
2023-01-25T23:36:28.753Z,1.00
2023-01-25T23:38:56.969Z,1.00
2023-01-25T23:41:29.089Z,1.00
2023-01-25T23:43:57.880Z,1.00
2023-01-25T23:46:25.671Z,1.00
2023-01-25T23:48:53.397Z,1.00
2023-01-25T23:51:20.715Z,1.00
2023-01-25T23:53:48.322Z,1.00
2023-01-25T23:56:20.325Z,1.00
2023-01-25T23:58:47.863Z,1.00
